Overview Statistics Trail Chart Weather Telemetry Raw packets
 

This is the latest recevied weather packets stored in our database for station/object K5FEP. If no packets are shown the sender has not sent any weather packets the latest 10 day(s).

<< 60 61 62 63 64 65 66 >>
Time Temp. Humidity Pressure Rain* Wind** Luminosity Snow
1788226520 25.56° C 82% 1017.9 hPa 0 mm - 0 W/m² -
1788226216 25.56° C 83% 1017.8 hPa 0 mm - 0 W/m² -
1788225915 25.56° C 84% 1017.8 hPa 0 mm - 0 W/m² -
1788225610 26.11° C 83% 1017.7 hPa 0 mm - 0 W/m² -
1788225307 26.67° C 80% 1017.9 hPa 0 mm - 0 W/m² -
1788225004 26.67° C 77% 1017.8 hPa 0 mm - 0 W/m² -
1788224700 26.67° C 77% 1017.9 hPa 0 mm - 0 W/m² -
1788224398 27.22° C 76% 1017.9 hPa 0 mm - 0 W/m² -
1788224094 27.78° C 72% 1017.9 hPa 0 mm - 0 W/m² -
1788223789 27.78° C 70% 1018 hPa 0 mm - 0 W/m² -
1788223488 27.78° C 70% 1018 hPa 0 mm - 0 W/m² -
1788223183 27.78° C 72% 1017.8 hPa 0 mm - 0 W/m² -
1788222878 27.78° C 73% 1017.7 hPa 0 mm - 0 W/m² -
1788222577 26.67° C 76% 1017.7 hPa 0 mm - 0 W/m² -
1788222276 26.11° C 77% 1017.4 hPa 0 mm - 0 W/m² -
1788221971 26.11° C 83% 1017.4 hPa 0 mm - 0 W/m² -
1788221666 26.67° C 80% 1017.2 hPa 0 mm - 0 W/m² -
1788221361 26.67° C 78% 1017.2 hPa 0 mm - 0 W/m² -
1788221056 27.22° C 78% 1017.1 hPa 0 mm - 0 W/m² -
1788220755 27.78° C 74% 1017.2 hPa 0 mm - 0 W/m² -
1788220452 28.89° C 72% 1017.1 hPa 0 mm - 1 W/m² -
1788220152 29.44° C 69% 1017 hPa 0 mm - 2 W/m² -
1788219852 30° C 61% 1017 hPa 0 mm - 3 W/m² -
1788219547 30° C 60% 1017 hPa 0 mm - 5 W/m² -
1788219242 30° C 59% 1017 hPa 0 mm - 7 W/m² -

* Rain latest hour (hover to see other rain measurements)
** Current wind speed in m/s (hover to see current wind gust speed)